Time;durP1;ratioP1;P1;durP2;ratioP2;P2;SDS_P1;SDS_P2;PMS_P1;PMS_P2;Temp;Humidity;BMP_temperature;BMP_pressure;BME280_temperature;BME280_humidity;BME280_pressure;Samples;Min_cycle;Max_cycle;Signal;HPM_P1;HPM_P2
2021/01/14 00:01:21;;;;;;;;;;;;;;;22.29;40.49;101451.09;3088629;28;114031;-63
2021/01/14 00:02:52;;;;;;;;;;;;;;;22.32;40.24;101444.84;3099544;28;114213;-63
2021/01/14 00:04:24;;;;;;;;;;;;;;;22.36;40.01;101442.25;3099526;28;114310;-63
2021/01/14 00:05:55;;;;;;;;;;;;;;;22.39;40.25;101453.75;3104603;28;114035;-63
2021/01/14 00:07:27;;;;;;;;;;;;;;;22.41;39.87;101445.81;3095469;28;114345;-64
2021/01/14 00:09:00;;;;;;;;;;;;;;;22.44;40.00;101436.72;3094659;28;114176;-63
2021/01/14 00:10:31;;;;;;;;;;;;;;;22.46;39.76;101448.53;3095110;28;114266;-62
2021/01/14 00:12:02;;;;;;;;;;;;;;;22.48;39.84;101445.44;3098554;28;113978;-63
2021/01/14 00:13:33;;;;;;;;;;;;;;;22.49;39.84;101439.47;3086211;28;114759;-63
2021/01/14 00:15:05;;;;;;;;;;;;;;;22.50;39.68;101441.13;3089699;28;114925;-63
2021/01/14 00:16:37;;;;;;;;;;;;;;;22.52;39.56;101436.03;3099646;28;113995;-63
2021/01/14 00:18:08;;;;;;;;;;;;;;;22.52;39.85;101433.22;3099830;28;114492;-64
2021/01/14 00:19:39;;;;;;;;;;;;;;;22.54;39.41;101438.53;3097334;28;114703;-62
2021/01/14 00:21:11;;;;;;;;;;;;;;;22.56;39.57;101439.06;3086875;28;114716;-62
2021/01/14 00:22:42;;;;;;;;;;;;;;;22.57;39.44;101432.28;3093037;28;115116;-62
2021/01/14 00:24:13;;;;;;;;;;;;;;;22.57;39.58;101438.78;3098812;28;114665;-62
2021/01/14 00:25:45;;;;;;;;;;;;;;;22.57;39.71;101435.94;3096677;28;115202;-62
2021/01/14 00:27:16;;;;;;;;;;;;;;;22.58;39.75;101437.59;3094419;28;114599;-62
2021/01/14 00:28:47;;;;;;;;;;;;;;;22.60;39.88;101434.47;3085577;28;114025;-66
2021/01/14 00:30:19;;;;;;;;;;;;;;;22.59;39.93;101428.00;3098056;28;117303;-66
2021/01/14 00:31:50;;;;;;;;;;;;;;;22.61;40.23;101436.16;3088004;28;115455;-64
2021/01/14 00:33:21;;;;;;;;;;;;;;;22.60;40.13;101431.66;3100768;28;115360;-64
2021/01/14 00:34:52;;;;;;;;;;;;;;;22.59;39.80;101430.81;3099064;28;115990;-62
2021/01/14 00:38:31;;;;;;;;;;;;;;;22.61;39.76;101433.34;3092772;28;115087;-65
2021/01/14 00:40:03;;;;;;;;;;;;;;;22.62;39.83;101432.19;3090728;28;115877;-59
2021/01/14 00:41:37;;;;;;;;;;;;;;;22.61;39.86;101428.53;3093398;28;116382;-58
2021/01/14 00:43:08;;;;;;;;;;;;;;;22.60;39.98;101432.50;3094950;28;115835;-58
2021/01/14 00:44:39;;;;;;;;;;;;;;;22.59;39.86;101422.38;3108064;27;115877;-57
2021/01/14 00:46:15;;;;;;;;;;;;;;;22.60;39.80;101424.06;3100221;28;114672;-57
2021/01/14 00:47:48;;;;;;;;;;;;;;;22.60;40.26;101421.25;3095387;28;117476;-57
2021/01/14 00:49:19;;;;;;;;;;;;;;;22.58;40.40;101415.06;3097575;28;116076;-57
2021/01/14 00:50:50;;;;;;;;;;;;;;;22.59;40.44;101415.91;3098806;28;115973;-58
2021/01/14 00:52:21;;;;;;;;;;;;;;;22.59;40.09;101422.38;3094608;28;114732;-57
2021/01/14 00:53:53;;;;;;;;;;;;;;;22.58;40.25;101415.06;3093560;28;115693;-58
2021/01/14 00:55:24;;;;;;;;;;;;;;;22.58;40.21;101415.06;3100542;28;114530;-57
2021/01/14 00:56:55;;;;;;;;;;;;;;;22.57;40.21;101413.41;3095345;28;114382;-60
2021/01/14 00:58:26;;;;;;;;;;;;;;;22.57;40.09;101415.41;3097724;28;113728;-58
2021/01/14 00:59:57;;;;;;;;;;;;;;;22.57;40.50;101412.59;3096628;28;114002;-57
2021/01/14 01:01:29;;;;;;;;;;;;;;;22.57;40.32;101412.59;3092762;28;114308;-62
2021/01/14 01:03:00;;;;;;;;;;;;;;;22.54;40.69;101414.03;3094749;28;113984;-57
2021/01/14 01:04:31;;;;;;;;;;;;;;;22.53;40.66;101403.91;3098930;28;114060;-57
2021/01/14 01:06:03;;;;;;;;;;;;;;;22.51;40.53;101403.38;3106250;28;114291;-58
2021/01/14 01:07:34;;;;;;;;;;;;;;;22.50;40.65;101407.34;3091533;28;114265;-58
2021/01/14 01:09:06;;;;;;;;;;;;;;;22.50;40.63;101406.50;3101136;28;114325;-59
2021/01/14 01:10:38;;;;;;;;;;;;;;;22.50;40.91;101396.06;3090224;28;114095;-58
2021/01/14 01:12:10;;;;;;;;;;;;;;;22.49;40.73;101405.66;3092145;28;114238;-58
2021/01/14 01:13:41;;;;;;;;;;;;;;;22.47;40.82;101402.34;3087258;28;114120;-58
2021/01/14 01:15:13;;;;;;;;;;;;;;;22.47;40.81;101398.69;3091006;28;114278;-57
2021/01/14 01:16:44;;;;;;;;;;;;;;;22.46;40.91;101399.81;3100962;28;113755;-57
2021/01/14 01:18:16;;;;;;;;;;;;;;;22.43;40.70;101395.66;3086474;28;116032;-57
2021/01/14 01:19:47;;;;;;;;;;;;;;;22.41;40.78;101402.72;3098310;28;117053;-58
2021/01/14 01:21:18;;;;;;;;;;;;;;;22.42;40.89;101396.81;3097041;28;115104;-58
2021/01/14 01:22:49;;;;;;;;;;;;;;;22.41;40.81;101391.47;3095943;28;115659;-58
2021/01/14 01:24:21;;;;;;;;;;;;;;;22.39;40.85;101388.16;3096650;28;114017;-58
2021/01/14 01:25:52;;;;;;;;;;;;;;;22.39;40.99;101393.78;3095616;28;114831;-58
2021/01/14 01:27:23;;;;;;;;;;;;;;;22.37;40.83;101388.44;3091775;28;114239;-58
2021/01/14 01:28:55;;;;;;;;;;;;;;;22.36;41.06;101385.94;3089784;28;115701;-59
2021/01/14 01:30:27;;;;;;;;;;;;;;;22.34;41.13;101386.25;3097430;28;114153;-60
2021/01/14 01:31:58;;;;;;;;;;;;;;;22.32;40.99;101387.69;3098267;28;114097;-59
2021/01/14 01:33:30;;;;;;;;;;;;;;;22.31;41.20;101381.22;3091709;28;115908;-60
2021/01/14 01:35:01;;;;;;;;;;;;;;;22.29;41.30;101389.16;3096825;28;114350;-59
2021/01/14 01:36:32;;;;;;;;;;;;;;;22.31;41.46;101383.22;3105653;28;114768;-60
2021/01/14 01:38:04;;;;;;;;;;;;;;;22.28;41.28;101381.03;3093221;28;115244;-59
2021/01/14 01:39:35;;;;;;;;;;;;;;;22.27;41.26;101385.81;3083348;28;116006;-59
2021/01/14 01:41:06;;;;;;;;;;;;;;;22.25;41.28;101382.50;3091318;28;115638;-59
2021/01/14 01:42:37;;;;;;;;;;;;;;;22.26;41.17;101388.97;3095967;28;115950;-60
2021/01/14 01:44:08;;;;;;;;;;;;;;;22.22;41.63;101388.72;3093981;28;117515;-60
2021/01/14 01:45:39;;;;;;;;;;;;;;;22.22;41.44;101391.53;3086694;28;115870;-59
2021/01/14 01:47:11;;;;;;;;;;;;;;;22.20;41.59;101391.03;3097351;28;115413;-59
2021/01/14 01:48:43;;;;;;;;;;;;;;;22.18;41.42;101388.50;3086072;28;114798;-59
2021/01/14 01:50:14;;;;;;;;;;;;;;;22.20;41.44;101390.19;3085004;28;116027;-59
2021/01/14 01:51:51;;;;;;;;;;;;;;;22.17;41.31;101384.03;3084795;28;115001;-59
2021/01/14 01:53:22;;;;;;;;;;;;;;;22.17;41.46;101391.63;3084147;28;114623;-59
2021/01/14 01:54:54;;;;;;;;;;;;;;;22.16;41.62;101387.16;3092476;28;114426;-58
2021/01/14 01:56:25;;;;;;;;;;;;;;;22.14;41.36;101378.19;3094090;28;115927;-58
2021/01/14 01:57:56;;;;;;;;;;;;;;;22.12;41.61;101391.75;3102935;27;115896;-58
2021/01/14 01:59:29;;;;;;;;;;;;;;;22.12;41.56;101388.94;3095712;28;116516;-59
2021/01/14 02:01:01;;;;;;;;;;;;;;;22.10;41.46;101389.22;3092390;28;115842;-58
2021/01/14 02:02:32;;;;;;;;;;;;;;;22.08;41.77;101385.88;3088662;28;114356;-58
2021/01/14 02:04:07;;;;;;;;;;;;;;;22.08;41.67;101388.69;3096739;28;113968;-59
2021/01/14 02:05:38;;;;;;;;;;;;;;;22.06;41.77;101393.81;3099599;28;114306;-58
2021/01/14 02:07:10;;;;;;;;;;;;;;;22.03;41.78;101393.59;3096936;27;114115;-58
2021/01/14 02:08:49;;;;;;;;;;;;;;;22.02;41.65;101389.09;3094473;28;114050;-58
2021/01/14 02:10:20;;;;;;;;;;;;;;;22.02;41.57;101389.09;3092502;28;114095;-58
2021/01/14 02:11:57;;;;;;;;;;;;;;;22.01;41.64;101387.41;3095574;28;113835;-62
2021/01/14 02:13:47;;;;;;;;;;;;;;;21.99;41.73;101387.72;3101082;28;113699;-58
2021/01/14 02:15:19;;;;;;;;;;;;;;;21.98;41.67;101385.22;3091648;28;114382;-58
2021/01/14 02:16:52;;;;;;;;;;;;;;;21.95;41.77;101380.19;3100778;28;114234;-58
2021/01/14 02:18:23;;;;;;;;;;;;;;;21.94;41.75;101390.63;3100524;28;117914;-58
2021/01/14 02:19:57;;;;;;;;;;;;;;;21.94;41.68;101385.00;3093770;28;114557;-58
2021/01/14 02:21:29;;;;;;;;;;;;;;;21.93;41.53;101382.50;3097574;28;114060;-59
2021/01/14 02:23:07;;;;;;;;;;;;;;;21.91;41.55;101374.31;3096889;28;114175;-59
2021/01/14 02:24:38;;;;;;;;;;;;;;;21.92;41.78;101375.16;3094156;28;114422;-59
2021/01/14 02:26:13;;;;;;;;;;;;;;;21.89;41.75;101375.78;3093757;28;115669;-59
2021/01/14 02:27:45;;;;;;;;;;;;;;;21.87;41.61;101373.28;3098845;28;114498;-58
2021/01/14 02:29:17;;;;;;;;;;;;;;;21.84;41.95;101379.53;3099255;28;115262;-59
2021/01/14 02:30:48;;;;;;;;;;;;;;;21.86;41.97;101373.56;3095066;28;116799;-59
2021/01/14 02:32:19;;;;;;;;;;;;;;;21.83;41.61;101365.75;3093902;28;115348;-60
2021/01/14 02:33:54;;;;;;;;;;;;;;;21.82;41.61;101372.53;3100431;28;115300;-59
2021/01/14 02:35:25;;;;;;;;;;;;;;;21.81;41.88;101368.03;3090960;28;114442;-59
2021/01/14 02:36:57;;;;;;;;;;;;;;;21.80;41.90;101374.81;3088372;28;115214;-59
2021/01/14 02:38:28;;;;;;;;;;;;;;;21.78;41.78;101375.13;3095919;28;115235;-59
2021/01/14 02:39:59;;;;;;;;;;;;;;;21.77;41.48;101370.63;3094267;28;114269;-59
2021/01/14 02:41:30;;;;;;;;;;;;;;;21.76;41.83;101365.31;3091231;28;114271;-59
2021/01/14 02:43:01;;;;;;;;;;;;;;;21.73;41.50;101366.75;3088981;28;114798;-59
2021/01/14 02:44:33;;;;;;;;;;;;;;;21.72;41.59;101363.09;3093561;28;115323;-59
2021/01/14 02:46:05;;;;;;;;;;;;;;;21.72;41.88;101365.91;3096053;28;115820;-59
2021/01/14 02:47:37;;;;;;;;;;;;;;;21.72;41.85;101357.47;3097935;28;114749;-59
2021/01/14 02:49:09;;;;;;;;;;;;;;;21.69;41.96;101358.09;3103742;28;115177;-58
2021/01/14 02:50:42;;;;;;;;;;;;;;;21.68;42.07;101361.22;3096562;28;116410;-60
2021/01/14 02:52:13;;;;;;;;;;;;;;;21.66;42.05;101358.72;3085749;28;116057;-69
2021/01/14 02:53:47;;;;;;;;;;;;;;;21.65;41.92;101359.88;3098772;28;115904;-69
2021/01/14 02:55:19;;;;;;;;;;;;;;;21.63;41.75;101361.28;3098682;28;116290;-68
2021/01/14 02:56:50;;;;;;;;;;;;;;;21.61;42.06;101353.19;3090969;28;114565;-68
2021/01/14 02:58:22;;;;;;;;;;;;;;;21.63;41.63;101350.88;3091310;28;115771;-68
2021/01/14 02:59:54;;;;;;;;;;;;;;;21.58;42.01;101358.56;3090341;28;118933;-68
2021/01/14 03:01:25;;;;;;;;;;;;;;;21.58;41.69;101342.53;3089257;28;114917;-59
2021/01/14 03:02:57;;;;;;;;;;;;;;;21.57;42.01;101348.47;3098882;28;115942;-59
2021/01/14 03:04:28;;;;;;;;;;;;;;;21.54;42.16;101344.28;3100026;28;114674;-59
2021/01/14 03:05:59;;;;;;;;;;;;;;;21.54;41.95;101344.28;3108221;28;115071;-59
2021/01/14 03:07:30;;;;;;;;;;;;;;;21.51;42.08;101336.47;3100376;28;113752;-59
2021/01/14 03:09:02;;;;;;;;;;;;;;;21.50;42.09;101334.78;3098745;28;114947;-59
2021/01/14 03:10:33;;;;;;;;;;;;;;;21.51;42.12;101336.47;3098286;28;114404;-59
2021/01/14 03:12:05;;;;;;;;;;;;;;;21.49;41.73;101326.66;3095485;28;114134;-59
2021/01/14 03:13:36;;;;;;;;;;;;;;;21.49;41.94;101332.28;3098856;28;113895;-60
2021/01/14 03:15:08;;;;;;;;;;;;;;;21.48;41.83;101328.66;3098212;28;114107;-62
2021/01/14 03:16:39;;;;;;;;;;;;;;;21.45;42.15;101325.59;3099069;28;114047;-60
2021/01/14 03:18:11;;;;;;;;;;;;;;;21.44;41.87;101326.75;3099613;28;113924;-59
2021/01/14 03:19:45;;;;;;;;;;;;;;;21.42;42.13;101321.44;3098625;28;113973;-58
2021/01/14 03:21:25;;;;;;;;;;;;;;;21.39;41.96;101324.03;3090537;28;113984;-59
2021/01/14 03:22:57;;;;;;;;;;;;;;;21.36;42.27;101314.22;3094072;28;113944;-58
2021/01/14 03:24:28;;;;;;;;;;;;;;;21.34;42.05;101316.50;3091520;28;117881;-59
2021/01/14 03:26:00;;;;;;;;;;;;;;;21.34;42.10;101322.13;3087584;28;114131;-59
2021/01/14 03:27:35;;;;;;;;;;;;;;;21.30;42.08;101321.88;3090183;28;114576;-58
2021/01/14 03:29:06;;;;;;;;;;;;;;;21.30;42.30;101323.88;3102119;28;114039;-58
2021/01/14 03:30:37;;;;;;;;;;;;;;;21.28;42.03;101315.75;3098597;28;115182;-60
2021/01/14 03:32:08;;;;;;;;;;;;;;;21.27;42.11;101318.84;3087730;28;116507;-58
2021/01/14 03:33:40;;;;;;;;;;;;;;;21.25;42.17;101321.16;3087826;28;116948;-58
2021/01/14 03:35:11;;;;;;;;;;;;;;;21.25;42.05;101318.34;3100623;28;115128;-59
2021/01/14 03:37:04;;;;;;;;;;;;;;;21.22;42.10;101314.16;3097618;27;115152;-61
2021/01/14 03:38:36;;;;;;;;;;;;;;;21.21;41.97;101311.66;3089595;28;115095;-58
2021/01/14 03:40:08;;;;;;;;;;;;;;;21.20;41.93;101315.59;3096630;28;115343;-59
2021/01/14 03:41:41;;;;;;;;;;;;;;;21.18;41.87;101312.25;3098011;28;114546;-58
2021/01/14 03:43:12;;;;;;;;;;;;;;;21.16;42.02;101311.72;3093749;28;115335;-58
2021/01/14 03:44:44;;;;;;;;;;;;;;;21.16;41.99;101308.91;3092896;28;115311;-58
2021/01/14 03:46:16;;;;;;;;;;;;;;;21.13;41.82;101310.34;3090360;28;114701;-59
2021/01/14 03:47:47;;;;;;;;;;;;;;;21.15;41.85;101301.63;3089758;28;115537;-59
2021/01/14 03:49:18;;;;;;;;;;;;;;;21.12;42.05;101303.03;3098918;28;114309;-59
2021/01/14 03:50:49;;;;;;;;;;;;;;;21.11;41.77;101301.38;3091743;28;115238;-59
2021/01/14 03:52:21;;;;;;;;;;;;;;;21.11;41.98;101300.53;3085708;28;115036;-58
2021/01/14 03:53:52;;;;;;;;;;;;;;;21.09;41.86;101297.19;3088194;28;115885;-59
2021/01/14 03:55:25;;;;;;;;;;;;;;;21.08;42.15;101295.50;3088585;28;115929;-59
2021/01/14 03:56:56;;;;;;;;;;;;;;;21.08;41.88;101293.53;3095361;28;117623;-59
2021/01/14 03:58:27;;;;;;;;;;;;;;;21.10;42.03;101294.06;3093832;28;116107;-59
2021/01/14 04:00:01;;;;;;;;;;;;;;;21.08;41.98;101290.72;3093181;28;114787;-58
2021/01/14 04:01:34;;;;;;;;;;;;;;;21.07;41.90;101291.03;3095902;28;115218;-58
2021/01/14 04:03:05;;;;;;;;;;;;;;;21.05;41.96;101284.88;3091606;28;114396;-58
2021/01/14 04:04:38;;;;;;;;;;;;;;;21.04;42.26;101284.03;3091882;28;115740;-58
2021/01/14 04:06:10;;;;;;;;;;;;;;;21.03;41.97;101287.19;3106332;28;115864;-59
2021/01/14 04:07:42;;;;;;;;;;;;;;;21.00;42.11;101280.16;3098952;27;114848;-58
2021/01/14 04:09:13;;;;;;;;;;;;;;;20.99;41.98;101277.66;3099058;28;115992;-58
2021/01/14 04:10:45;;;;;;;;;;;;;;;20.99;41.85;101277.66;3099353;28;117978;-58
2021/01/14 04:12:16;;;;;;;;;;;;;;;20.98;42.39;101274.03;3094649;28;114880;-58
2021/01/14 04:13:47;;;;;;;;;;;;;;;20.96;42.05;101275.47;3091929;28;114222;-59
2021/01/14 04:15:19;;;;;;;;;;;;;;;20.95;42.04;101277.44;3098937;28;115060;-58
2021/01/14 04:16:52;;;;;;;;;;;;;;;20.95;42.04;101270.97;3095412;28;114114;-58
2021/01/14 04:18:23;;;;;;;;;;;;;;;20.94;42.29;101274.94;3099598;28;114839;-58
2021/01/14 04:19:54;;;;;;;;;;;;;;;20.92;42.37;101271.59;3099829;28;113967;-58
2021/01/14 04:21:26;;;;;;;;;;;;;;;20.91;42.42;101273.56;3086712;28;115579;-58
2021/01/14 04:22:57;;;;;;;;;;;;;;;20.88;42.23;101279.81;3089886;28;114391;-58
2021/01/14 04:24:42;;;;;;;;;;;;;;;20.88;42.28;101270.53;3094673;28;114804;-59
2021/01/14 04:26:22;;;;;;;;;;;;;;;20.87;42.09;101266.88;3093358;28;114491;-59
2021/01/14 04:27:53;;;;;;;;;;;;;;;20.85;42.29;101264.38;3092258;28;114090;-63
2021/01/14 04:29:25;;;;;;;;;;;;;;;20.85;42.41;101274.75;3093056;28;113903;-59
2021/01/14 04:30:56;;;;;;;;;;;;;;;20.84;42.35;101264.69;3097429;28;114607;-58
2021/01/14 04:32:31;;;;;;;;;;;;;;;20.83;42.27;101269.47;3098803;28;114033;-58
2021/01/14 04:34:03;;;;;;;;;;;;;;;20.83;42.14;101260.22;3100793;28;114402;-58
2021/01/14 04:35:34;;;;;;;;;;;;;;;20.83;42.08;101263.03;3103345;27;115475;-58
2021/01/14 04:37:06;;;;;;;;;;;;;;;20.82;42.53;101255.72;3093706;28;115028;-57
2021/01/14 04:38:37;;;;;;;;;;;;;;;20.79;42.28;101254.38;3086612;28;115159;-57
2021/01/14 04:40:08;;;;;;;;;;;;;;;20.80;42.20;101247.59;3096931;28;114238;-58
2021/01/14 04:41:48;;;;;;;;;;;;;;;20.79;42.43;101248.75;3097184;28;115076;-58
2021/01/14 04:43:19;;;;;;;;;;;;;;;20.78;42.43;101251.84;3096829;28;114202;-59
2021/01/14 04:44:50;;;;;;;;;;;;;;;20.76;42.31;101249.34;3097430;28;114268;-58
2021/01/14 04:46:22;;;;;;;;;;;;;;;20.74;42.40;101246.00;3096720;28;114573;-59
2021/01/14 04:47:54;;;;;;;;;;;;;;;20.74;42.33;101240.41;3096844;28;115160;-57
2021/01/14 04:49:25;;;;;;;;;;;;;;;20.72;42.67;101241.81;3097243;28;115164;-58
2021/01/14 04:51:04;;;;;;;;;;;;;;;20.71;42.48;101235.41;3097330;28;114145;-58
2021/01/14 04:52:41;;;;;;;;;;;;;;;20.72;42.28;101244.63;3092965;28;114831;-59
2021/01/14 04:54:14;;;;;;;;;;;;;;;20.71;42.30;101238.22;3086952;28;115175;-59
2021/01/14 04:55:49;;;;;;;;;;;;;;;20.70;42.53;101249.72;3100915;28;114491;-58
2021/01/14 04:57:22;;;;;;;;;;;;;;;20.71;42.68;101229.78;3084676;28;114662;-59
2021/01/14 04:59:01;;;;;;;;;;;;;;;20.69;42.55;101225.59;3095546;28;115843;-58
2021/01/14 05:00:34;;;;;;;;;;;;;;;20.69;42.31;101229.22;3097251;28;115644;-59
2021/01/14 05:02:07;;;;;;;;;;;;;;;20.66;42.37;101227.03;3095508;28;115641;-58
2021/01/14 05:03:42;;;;;;;;;;;;;;;20.65;42.26;101222.56;3093792;28;115469;-59
2021/01/14 05:05:16;;;;;;;;;;;;;;;20.66;41.91;101221.44;3094143;28;116146;-58
2021/01/14 05:06:55;;;;;;;;;;;;;;;20.66;42.16;101226.22;3092267;28;115305;-59
2021/01/14 05:08:28;;;;;;;;;;;;;;;20.67;41.77;101217.47;3095864;28;115090;-59
2021/01/14 05:10:04;;;;;;;;;;;;;;;20.66;42.02;101218.63;3092834;28;114687;-58
2021/01/14 05:11:38;;;;;;;;;;;;;;;20.63;41.82;101210.78;3095212;28;114628;-58
2021/01/14 05:13:09;;;;;;;;;;;;;;;20.63;41.99;101204.31;3097745;28;114740;-59
2021/01/14 05:14:42;;;;;;;;;;;;;;;20.60;41.88;101214.19;3096575;28;117713;-58
2021/01/14 05:16:14;;;;;;;;;;;;;;;20.59;42.14;101201.31;3087440;28;116003;-57
2021/01/14 05:17:46;;;;;;;;;;;;;;;20.58;42.08;101202.44;3097014;28;117573;-58
2021/01/14 05:19:18;;;;;;;;;;;;;;;20.57;42.18;101197.97;3099697;28;116127;-58
2021/01/14 05:20:49;;;;;;;;;;;;;;;20.54;42.37;101195.75;3094903;28;114336;-58
2021/01/14 05:22:26;;;;;;;;;;;;;;;20.53;42.24;101196.91;3094094;28;114193;-58
2021/01/14 05:24:07;;;;;;;;;;;;;;;20.54;42.26;101200.53;3095692;28;114145;-58
2021/01/14 05:25:54;;;;;;;;;;;;;;;20.50;42.05;101191.88;3096483;28;114330;-58
2021/01/14 05:27:25;;;;;;;;;;;;;;;20.51;42.02;101192.72;3097635;28;114141;-58
2021/01/14 05:28:56;;;;;;;;;;;;;;;20.49;42.18;101189.41;3095638;28;113882;-58
2021/01/14 05:30:28;;;;;;;;;;;;;;;20.48;42.44;101187.72;3102665;28;114456;-57
2021/01/14 05:31:59;;;;;;;;;;;;;;;20.46;42.12;101181.56;3100244;28;114830;-57
2021/01/14 05:33:30;;;;;;;;;;;;;;;20.45;42.35;101183.53;3099829;28;114562;-57
2021/01/14 05:35:05;;;;;;;;;;;;;;;20.44;42.40;101181.88;3099970;28;114818;-57
2021/01/14 05:36:52;;;;;;;;;;;;;;;20.43;42.33;101180.22;3099082;28;114165;-57
2021/01/14 05:38:25;;;;;;;;;;;;;;;20.42;42.11;101181.34;3095676;28;114203;-58
2021/01/14 05:39:56;;;;;;;;;;;;;;;20.41;42.16;101177.69;3096639;28;114289;-57
2021/01/14 05:41:28;;;;;;;;;;;;;;;20.40;42.11;101170.41;3104217;28;114219;-58
2021/01/14 05:43:04;;;;;;;;;;;;;;;20.40;42.07;101176.03;3098442;28;115399;-57
2021/01/14 05:44:37;;;;;;;;;;;;;;;20.39;42.49;101173.53;3106887;27;114616;-59
2021/01/14 05:46:17;;;;;;;;;;;;;;;20.36;42.47;101166.53;3100824;28;115252;-59
2021/01/14 05:47:49;;;;;;;;;;;;;;;20.37;42.35;101167.38;3099185;28;114895;-59
2021/01/14 05:49:20;;;;;;;;;;;;;;;20.37;42.47;101173.00;3096205;28;114702;-58
2021/01/14 05:50:52;;;;;;;;;;;;;;;20.35;42.45;101164.06;3094763;28;115993;-58
2021/01/14 05:52:24;;;;;;;;;;;;;;;20.35;42.16;101169.66;3098001;28;115455;-59
2021/01/14 05:53:59;;;;;;;;;;;;;;;20.33;42.14;101161.53;3099309;28;117194;-59
2021/01/14 05:55:32;;;;;;;;;;;;;;;20.31;42.43;101163.78;3099445;28;115231;-59
2021/01/14 05:57:07;;;;;;;;;;;;;;;20.30;42.45;101162.16;3100642;28;115690;-58
2021/01/14 05:58:42;;;;;;;;;;;;;;;20.29;42.32;101162.41;3097976;28;114233;-59
2021/01/14 06:00:14;;;;;;;;;;;;;;;20.29;42.17;101160.44;3097058;28;116313;-58
2021/01/14 06:01:51;;;;;;;;;;;;;;;20.28;42.50;101158.78;3097546;28;114401;-58
2021/01/14 06:03:31;;;;;;;;;;;;;;;20.28;42.38;101152.31;3100535;28;115211;-59
2021/01/14 06:05:03;;;;;;;;;;;;;;;20.26;42.56;101149.00;3097047;28;115916;-58
2021/01/14 06:06:34;;;;;;;;;;;;;;;20.25;42.37;101148.16;3092179;28;115896;-58
2021/01/14 06:08:06;;;;;;;;;;;;;;;20.25;42.55;101145.34;3092553;28;116014;-58
2021/01/14 06:09:41;;;;;;;;;;;;;;;20.24;42.76;101154.91;3094291;28;114721;-59
2021/01/14 06:11:22;;;;;;;;;;;;;;;20.23;42.51;101150.41;3089709;28;114533;-58
2021/01/14 06:12:53;;;;;;;;;;;;;;;20.23;42.53;101141.16;3094727;28;115395;-59
2021/01/14 06:14:24;;;;;;;;;;;;;;;20.21;42.70;101143.44;3091123;28;114834;-59
2021/01/14 06:15:59;;;;;;;;;;;;;;;20.21;42.79;101138.69;3093572;28;115964;-66
2021/01/14 06:17:33;;;;;;;;;;;;;;;20.19;42.86;101143.75;3096426;28;115104;-65
2021/01/14 06:19:08;;;;;;;;;;;;;;;20.16;42.83;101138.75;3095425;28;116565;-66
2021/01/14 06:20:52;;;;;;;;;;;;;;;20.17;42.67;101142.38;3098915;28;115889;-67
2021/01/14 06:22:30;;;;;;;;;;;;;;;20.15;42.76;101134.25;3098301;28;114912;-66
2021/01/14 06:24:02;;;;;;;;;;;;;;;20.14;42.97;101135.41;3097920;28;115908;-66
2021/01/14 06:25:46;;;;;;;;;;;;;;;20.16;42.95;101129.50;3099486;28;115798;-66
2021/01/14 06:27:17;;;;;;;;;;;;;;;20.14;43.07;101134.56;3096420;28;114567;-65
2021/01/14 06:28:49;;;;;;;;;;;;;;;20.15;43.21;101130.63;3097804;28;113982;-66
2021/01/14 06:30:20;;;;;;;;;;;;;;;20.13;43.21;101127.28;3095850;28;114750;-66
2021/01/14 06:32:04;;;;;;;;;;;;;;;20.12;42.98;101131.22;3097366;28;114334;-66
2021/01/14 06:33:36;;;;;;;;;;;;;;;20.12;43.23;101122.81;3099457;28;115013;-65
2021/01/14 06:35:08;;;;;;;;;;;;;;;20.11;42.88;101124.78;3099376;28;114096;-66
2021/01/14 06:36:41;;;;;;;;;;;;;;;20.10;43.00;101119.47;3099273;28;114223;-66
2021/01/14 06:38:16;;;;;;;;;;;;;;;20.07;42.98;101118.13;3099566;28;113887;-66
2021/01/14 06:39:49;;;;;;;;;;;;;;;20.07;42.91;101120.09;3097265;28;115464;-66
2021/01/14 06:41:21;;;;;;;;;;;;;;;20.06;43.10;101110.00;3097806;28;114568;-64
2021/01/14 06:42:55;;;;;;;;;;;;;;;20.04;43.02;101113.09;3097586;28;115592;-64
2021/01/14 06:44:33;;;;;;;;;;;;;;;20.04;42.77;101115.88;3097275;28;114178;-64
2021/01/14 06:46:09;;;;;;;;;;;;;;;20.04;42.80;101115.06;3099948;28;113748;-64
2021/01/14 06:47:46;;;;;;;;;;;;;;;20.02;43.12;101114.53;3100083;28;114247;-63
2021/01/14 06:49:30;;;;;;;;;;;;;;;20.01;42.88;101113.69;3107165;28;114224;-62
2021/01/14 06:51:04;;;;;;;;;;;;;;;20.00;42.92;101109.22;3098872;28;114726;-63
2021/01/14 06:52:41;;;;;;;;;;;;;;;20.01;42.89;101108.09;3096116;28;114139;-64
2021/01/14 06:54:14;;;;;;;;;;;;;;;19.99;42.80;101110.34;3093373;28;115304;-63
2021/01/14 06:55:46;;;;;;;;;;;;;;;20.00;42.78;101103.59;3098855;28;115556;-63
2021/01/14 06:57:24;;;;;;;;;;;;;;;19.98;43.07;101098.31;3099526;28;115865;-63
2021/01/14 06:59:01;;;;;;;;;;;;;;;20.01;43.45;101098.84;3099085;28;114356;-58
2021/01/14 07:00:45;;;;;;;;;;;;;;;20.04;43.30;101096.25;3098746;28;114723;-58
2021/01/14 07:02:44;;;;;;;;;;;;;;;20.07;43.24;101100.44;3097346;28;114995;-57
2021/01/14 07:04:36;;;;;;;;;;;;;;;20.13;43.34;101100.06;3097588;28;117402;-58
2021/01/14 07:06:12;;;;;;;;;;;;;;;20.17;43.53;101100.31;3098545;28;115405;-58
2021/01/14 07:07:48;;;;;;;;;;;;;;;20.19;43.54;101093.25;3088245;28;115415;-58
2021/01/14 07:09:25;;;;;;;;;;;;;;;20.21;43.50;101085.38;3100190;28;114011;-58
2021/01/14 07:11:06;;;;;;;;;;;;;;;20.26;43.72;101090.06;3099124;28;117503;-58
2021/01/14 07:12:38;;;;;;;;;;;;;;;20.29;43.77;101087.50;3100130;28;113972;-58
2021/01/14 07:14:14;;;;;;;;;;;;;;;20.32;43.79;101092.50;3099511;28;114799;-58
2021/01/14 07:15:45;;;;;;;;;;;;;;;20.37;43.90;101091.59;3096808;28;114942;-58
2021/01/14 07:17:31;;;;;;;;;;;;;;;20.42;43.94;101089.56;3096945;28;115662;-66
2021/01/14 07:19:02;;;;;;;;;;;;;;;20.48;43.90;101084.72;3092445;28;114553;-63
2021/01/14 07:20:35;;;;;;;;;;;;;;;20.54;43.69;101085.44;3097680;28;115828;-63
2021/01/14 07:22:06;;;;;;;;;;;;;;;20.57;43.28;101077.25;3096436;28;115154;-64
2021/01/14 07:23:43;;;;;;;;;;;;;;;20.63;43.09;101086.41;3097327;28;116024;-64
2021/01/14 07:25:18;;;;;;;;;;;;;;;20.67;42.97;101079.88;3097187;28;115498;-64
2021/01/14 07:26:50;;;;;;;;;;;;;;;20.72;42.95;101082.59;3099322;28;117155;-63
2021/01/14 07:28:21;;;;;;;;;;;;;;;20.77;43.01;101085.34;3097254;28;114568;-64
2021/01/14 07:29:55;;;;;;;;;;;;;;;20.81;42.66;101080.78;3097798;28;114926;-63
2021/01/14 07:31:26;;;;;;;;;;;;;;;20.86;42.78;101080.69;3095686;28;115905;-63
2021/01/14 07:33:04;;;;;;;;;;;;;;;20.91;42.57;101081.72;3096337;28;115952;-63
2021/01/14 07:34:45;;;;;;;;;;;;;;;20.96;42.62;101079.66;3096815;28;116177;-58
2021/01/14 07:36:20;;;;;;;;;;;;;;;21.02;42.32;101083.22;3098895;28;113665;-58
2021/01/14 07:37:53;;;;;;;;;;;;;;;21.07;42.30;101077.53;3096518;28;114195;-58
2021/01/14 07:39:43;;;;;;;;;;;;;;;21.10;42.26;101083.34;3097817;28;114879;-58
2021/01/14 07:41:14;;;;;;;;;;;;;;;21.15;42.26;101068.41;3097351;28;114121;-58
2021/01/14 07:42:47;;;;;;;;;;;;;;;21.20;42.41;101059.88;3091063;28;114946;-59
2021/01/14 07:44:19;;;;;;;;;;;;;;;21.24;42.61;101061.75;3091451;28;114472;-58
2021/01/14 07:46:10;;;;;;;;;;;;;;;21.29;42.29;101067.28;3098337;28;114450;-58
2021/01/14 07:47:41;;;;;;;;;;;;;;;21.35;42.22;101070.81;3107704;28;114381;-58
2021/01/14 07:49:25;;;;;;;;;;;;;;;21.40;42.10;101067.06;3101427;28;113913;-58
2021/01/14 07:51:00;;;;;;;;;;;;;;;21.42;41.81;101068.44;3096377;28;114150;-58
2021/01/14 07:52:33;;;;;;;;;;;;;;;21.47;41.95;101067.50;3088107;28;114003;-58
2021/01/14 07:54:06;;;;;;;;;;;;;;;21.50;41.86;101064.91;3093785;28;114682;-58
2021/01/14 07:55:38;;;;;;;;;;;;;;;21.54;41.90;101065.94;3104570;28;115431;-58
2021/01/14 07:57:12;;;;;;;;;;;;;;;21.56;41.74;101063.66;3093227;28;114350;-58